createdAt,value
2022-09-14T00:00:41.432Z,19.87
2022-09-14T00:02:46.350Z,19.86
2022-09-14T00:04:51.233Z,19.84
2022-09-14T00:06:55.972Z,19.84
2022-09-14T00:09:02.245Z,19.84
2022-09-14T00:11:10.283Z,19.85
2022-09-14T00:13:16.748Z,19.88
2022-09-14T00:15:21.657Z,19.89
2022-09-14T00:17:26.793Z,19.89
2022-09-14T00:19:31.460Z,19.86
2022-09-14T00:21:38.258Z,19.84
2022-09-14T00:23:43.452Z,19.82
2022-09-14T00:25:48.408Z,19.81
2022-09-14T00:27:53.319Z,19.81
2022-09-14T00:29:58.547Z,19.79
2022-09-14T00:32:04.001Z,19.78
2022-09-14T00:34:13.120Z,19.76
2022-09-14T00:36:21.028Z,19.73
2022-09-14T00:38:27.581Z,19.73
2022-09-14T00:40:35.585Z,19.71
2022-09-14T00:42:40.721Z,19.69
2022-09-14T00:45:05.861Z,19.68
2022-09-14T00:47:12.223Z,19.66
2022-09-14T00:49:21.145Z,19.65
2022-09-14T00:51:27.342Z,19.58
2022-09-14T00:53:35.012Z,19.58
2022-09-14T00:55:39.902Z,19.58
2022-09-14T00:57:47.659Z,19.58
2022-09-14T00:59:53.771Z,19.58
2022-09-14T01:01:58.625Z,19.55
2022-09-14T01:04:04.817Z,19.48
2022-09-14T01:06:16.771Z,19.44
2022-09-14T01:08:53.282Z,19.40
2022-09-14T01:11:20.185Z,19.36
2022-09-14T01:13:33.963Z,19.33
2022-09-14T01:15:48.029Z,19.29
2022-09-14T01:18:00.943Z,19.27
2022-09-14T01:20:17.553Z,19.27
2022-09-14T01:22:27.395Z,19.27
2022-09-14T01:24:43.304Z,19.28
2022-09-14T01:27:15.173Z,19.27
2022-09-14T01:29:24.515Z,19.28
2022-09-14T01:31:36.621Z,19.29
2022-09-14T01:33:47.822Z,19.31
2022-09-14T01:35:55.938Z,19.33
2022-09-14T01:38:04.898Z,19.36
2022-09-14T01:40:16.570Z,19.38
2022-09-14T01:42:25.042Z,19.40
2022-09-14T01:44:34.828Z,19.39
2022-09-14T01:46:44.865Z,19.44
2022-09-14T01:48:54.578Z,19.47
2022-09-14T01:51:01.408Z,19.49
2022-09-14T01:53:14.523Z,19.48
2022-09-14T01:55:25.002Z,19.46
2022-09-14T01:57:35.595Z,19.44
2022-09-14T01:59:45.064Z,19.41
2022-09-14T02:01:53.923Z,19.35
2022-09-14T02:04:02.810Z,19.28
2022-09-14T02:06:16.208Z,19.24
2022-09-14T02:08:21.363Z,19.19
2022-09-14T02:10:27.845Z,19.10
2022-09-14T02:12:32.809Z,19.04
2022-09-14T02:14:37.797Z,18.99
2022-09-14T02:16:42.840Z,18.93
2022-09-14T02:18:47.564Z,18.90
2022-09-14T02:20:57.515Z,18.85
2022-09-14T02:23:02.854Z,18.79
2022-09-14T02:25:08.975Z,18.73
2022-09-14T02:27:13.833Z,18.67
2022-09-14T02:29:18.779Z,18.66
2022-09-14T02:31:33.739Z,18.64
2022-09-14T02:33:45.900Z,18.63
2022-09-14T02:35:54.579Z,18.63
2022-09-14T02:38:08.609Z,18.62
2022-09-14T02:40:20.835Z,18.63
2022-09-14T02:42:32.840Z,18.64
2022-09-14T02:44:47.519Z,18.63
2022-09-14T02:46:59.032Z,18.65
2022-09-14T02:49:12.912Z,18.63
2022-09-14T02:51:27.429Z,18.63
2022-09-14T02:53:39.939Z,18.66
2022-09-14T02:55:48.811Z,18.69
2022-09-14T02:58:05.552Z,18.70
2022-09-14T03:00:12.022Z,18.72
2022-09-14T03:02:16.821Z,18.72
2022-09-14T03:04:21.711Z,18.72
2022-09-14T03:06:26.478Z,18.75
2022-09-14T03:08:31.277Z,18.76
2022-09-14T03:10:36.587Z,18.76
2022-09-14T03:12:41.255Z,18.77
2022-09-14T03:14:46.021Z,18.76
2022-09-14T03:16:50.713Z,18.76
2022-09-14T03:18:55.367Z,18.75
2022-09-14T03:21:06.142Z,18.74
2022-09-14T03:23:11.243Z,18.73
2022-09-14T03:25:16.760Z,18.74
2022-09-14T03:27:21.411Z,18.75
2022-09-14T03:29:26.228Z,18.76
2022-09-14T03:31:31.324Z,18.77
2022-09-14T03:33:36.527Z,18.76
2022-09-14T03:35:41.197Z,18.75
2022-09-14T03:37:46.717Z,18.77
2022-09-14T03:39:51.525Z,18.77
2022-09-14T03:41:56.200Z,18.79
2022-09-14T03:44:00.987Z,18.80
2022-09-14T03:46:09.052Z,18.79
2022-09-14T03:48:13.758Z,18.75
2022-09-14T03:50:19.604Z,18.75
2022-09-14T03:52:25.386Z,18.76
2022-09-14T03:54:30.187Z,18.77
2022-09-14T03:56:34.893Z,18.81
2022-09-14T03:58:39.835Z,18.82
2022-09-14T04:00:44.532Z,18.85
2022-09-14T04:02:49.696Z,18.86
2022-09-14T04:04:54.352Z,18.89
2022-09-14T04:06:59.096Z,18.92
2022-09-14T04:09:03.776Z,18.95
2022-09-14T04:11:13.924Z,18.96
2022-09-14T04:13:18.627Z,18.97
2022-09-14T04:15:23.320Z,18.96
2022-09-14T04:17:28.164Z,18.92
2022-09-14T04:19:32.801Z,18.92
2022-09-14T04:21:37.417Z,18.93
2022-09-14T04:24:03.491Z,18.96
2022-09-14T04:26:13.574Z,19.00
2022-09-14T04:28:20.411Z,19.01
2022-09-14T04:30:25.697Z,19.01
2022-09-14T04:32:34.177Z,19.05
2022-09-14T04:34:39.332Z,19.08
2022-09-14T04:36:44.121Z,19.11
2022-09-14T04:38:52.522Z,19.13
2022-09-14T04:40:57.954Z,19.15
2022-09-14T04:43:02.612Z,19.15
2022-09-14T04:45:08.790Z,19.18
2022-09-14T04:47:14.069Z,19.21
2022-09-14T04:49:19.077Z,19.17
2022-09-14T04:51:25.529Z,19.14
2022-09-14T04:53:30.318Z,19.10
2022-09-14T04:55:35.043Z,19.07
2022-09-14T04:57:39.753Z,19.06
2022-09-14T04:59:44.500Z,19.09
2022-09-14T05:01:49.890Z,19.07
2022-09-14T05:03:55.216Z,19.05
2022-09-14T05:06:04.389Z,19.09
2022-09-14T05:08:09.038Z,19.13
2022-09-14T05:10:13.800Z,19.20
2022-09-14T05:12:18.499Z,19.22
2022-09-14T05:14:23.343Z,19.17
2022-09-14T05:16:29.631Z,19.17
2022-09-14T05:18:34.398Z,19.17
2022-09-14T05:20:39.270Z,19.16
2022-09-14T05:22:43.984Z,19.18
2022-09-14T05:24:48.638Z,19.23
2022-09-14T05:26:57.090Z,19.24
2022-09-14T05:29:05.411Z,19.26
2022-09-14T05:31:11.728Z,19.30
2022-09-14T05:33:16.537Z,19.35
2022-09-14T05:35:21.423Z,19.39
2022-09-14T05:37:26.265Z,19.44
2022-09-14T05:39:31.115Z,19.50
2022-09-14T05:41:36.527Z,19.53
2022-09-14T05:43:41.745Z,19.55
2022-09-14T05:45:46.463Z,19.54
2022-09-14T05:47:51.210Z,19.50
2022-09-14T05:49:56.198Z,19.51
2022-09-14T05:52:01.121Z,19.49
2022-09-14T05:54:06.017Z,19.42
2022-09-14T05:56:13.594Z,19.39
2022-09-14T05:58:18.340Z,19.36
2022-09-14T06:00:23.653Z,19.39
2022-09-14T06:02:28.505Z,19.43
2022-09-14T06:04:33.218Z,19.46
2022-09-14T06:06:38.049Z,19.48
2022-09-14T06:08:43.463Z,19.53
2022-09-14T06:10:48.150Z,19.56
2022-09-14T06:12:55.486Z,19.59
2022-09-14T06:15:00.476Z,19.64
2022-09-14T06:17:05.179Z,19.69
2022-09-14T06:19:10.584Z,19.72
2022-09-14T06:21:17.369Z,19.75
2022-09-14T06:23:22.042Z,19.76
2022-09-14T06:25:26.767Z,19.74
2022-09-14T06:27:31.436Z,19.75
2022-09-14T06:29:36.166Z,19.79
2022-09-14T06:31:40.844Z,19.82
2022-09-14T06:33:50.042Z,19.81
2022-09-14T06:35:58.890Z,19.81
2022-09-14T06:38:03.561Z,19.82
2022-09-14T06:40:09.650Z,19.81
2022-09-14T06:42:17.164Z,19.82
2022-09-14T06:44:25.627Z,19.82
2022-09-14T06:46:32.327Z,19.82
2022-09-14T06:48:38.979Z,19.85
2022-09-14T06:50:43.758Z,19.86
2022-09-14T06:52:48.412Z,19.92
2022-09-14T06:54:53.169Z,19.99
2022-09-14T06:56:57.993Z,19.96
2022-09-14T06:59:03.483Z,19.91
2022-09-14T07:01:11.090Z,19.90
2022-09-14T07:03:15.871Z,19.93
2022-09-14T07:05:20.549Z,19.96
2022-09-14T07:07:25.399Z,20.02
2022-09-14T07:09:30.117Z,20.03
2022-09-14T07:11:35.561Z,20.03
2022-09-14T07:13:40.329Z,20.06
2022-09-14T07:15:50.533Z,20.12
2022-09-14T07:17:55.259Z,20.17
2022-09-14T07:19:59.995Z,20.14
2022-09-14T07:22:04.751Z,20.12
2022-09-14T07:24:10.610Z,20.09
2022-09-14T07:26:18.563Z,20.07
2022-09-14T07:28:23.380Z,20.05
2022-09-14T07:30:28.237Z,20.08
2022-09-14T07:32:33.074Z,20.12
2022-09-14T07:34:37.808Z,20.18
2022-09-14T07:36:42.919Z,20.27
2022-09-14T07:38:52.566Z,20.41
2022-09-14T07:41:00.580Z,20.56
2022-09-14T07:43:05.293Z,20.71
2022-09-14T07:45:11.055Z,20.80
2022-09-14T07:47:15.753Z,20.90
2022-09-14T07:49:20.377Z,20.95
2022-09-14T07:51:26.008Z,21.04
2022-09-14T07:53:30.980Z,21.05
2022-09-14T07:55:38.099Z,21.05
2022-09-14T07:57:55.565Z,21.12
2022-09-14T08:00:01.492Z,21.22
2022-09-14T08:02:16.524Z,21.32
2022-09-14T08:04:21.442Z,21.44
2022-09-14T08:06:26.845Z,21.49
2022-09-14T08:08:33.710Z,21.51
2022-09-14T08:10:38.386Z,21.50
2022-09-14T08:12:43.081Z,21.53
2022-09-14T08:14:47.794Z,21.57
2022-09-14T08:16:52.586Z,21.59
2022-09-14T08:18:59.519Z,21.63
2022-09-14T08:21:07.523Z,21.71
2022-09-14T08:23:12.165Z,21.85
2022-09-14T08:25:16.874Z,21.98
2022-09-14T08:27:21.468Z,22.01
2022-09-14T08:29:26.398Z,22.00
2022-09-14T08:31:31.127Z,22.00
2022-09-14T08:33:39.400Z,22.00
2022-09-14T08:35:57.883Z,21.96
2022-09-14T08:38:02.964Z,21.91
2022-09-14T08:40:10.673Z,21.88
2022-09-14T08:42:18.289Z,21.83
2022-09-14T08:44:27.135Z,21.79
2022-09-14T08:46:34.480Z,21.75
2022-09-14T08:48:45.450Z,21.75
2022-09-14T08:50:51.626Z,21.80
2022-09-14T08:52:56.747Z,21.87
2022-09-14T08:55:14.505Z,21.90
2022-09-14T08:57:26.408Z,21.88
2022-09-14T08:59:48.552Z,21.87
2022-09-14T09:02:03.136Z,21.88
2022-09-14T09:04:33.533Z,21.92
2022-09-14T09:06:49.042Z,22.00
2022-09-14T09:09:03.040Z,22.02
2022-09-14T09:11:14.653Z,22.04
2022-09-14T09:13:26.686Z,22.03
2022-09-14T09:15:35.097Z,22.07
2022-09-14T09:17:44.535Z,22.17
2022-09-14T09:19:59.153Z,22.20
2022-09-14T09:22:06.725Z,22.14
2022-09-14T09:24:32.371Z,22.11
2022-09-14T09:26:41.600Z,22.24
2022-09-14T09:28:49.348Z,22.40
2022-09-14T09:30:57.441Z,22.50
2022-09-14T09:33:07.584Z,22.49
2022-09-14T09:35:27.695Z,22.56
2022-09-14T09:37:42.333Z,22.62
2022-09-14T09:39:47.480Z,22.70
2022-09-14T09:41:55.995Z,22.80
2022-09-14T09:44:03.947Z,22.96
2022-09-14T09:46:09.459Z,23.09
2022-09-14T09:48:16.178Z,23.20
2022-09-14T09:50:22.779Z,23.22
2022-09-14T09:52:27.515Z,23.27
2022-09-14T09:54:33.554Z,23.34
2022-09-14T09:56:40.962Z,23.42
2022-09-14T09:58:45.676Z,23.48
2022-09-14T10:00:57.402Z,23.56
2022-09-14T10:03:26.756Z,23.69
2022-09-14T10:05:31.783Z,23.78
2022-09-14T10:07:53.433Z,23.81
2022-09-14T10:10:05.138Z,23.83
2022-09-14T10:12:15.817Z,23.78
2022-09-14T10:14:27.212Z,23.76
2022-09-14T10:16:40.748Z,23.69
2022-09-14T10:18:49.240Z,23.63
2022-09-14T10:21:10.576Z,23.56
2022-09-14T10:23:25.220Z,23.46
2022-09-14T10:25:29.995Z,23.39
2022-09-14T10:27:41.026Z,23.34
2022-09-14T10:29:47.174Z,23.26
2022-09-14T10:31:52.158Z,23.20
2022-09-14T10:33:58.185Z,23.19
2022-09-14T10:36:09.857Z,23.16
2022-09-14T10:38:32.507Z,23.14
2022-09-14T10:40:42.436Z,23.12
2022-09-14T10:42:57.438Z,23.12
2022-09-14T10:45:14.315Z,23.11
2022-09-14T10:47:36.095Z,23.02
2022-09-14T10:49:56.852Z,22.95
2022-09-14T10:52:15.922Z,22.90
2022-09-14T10:54:41.203Z,22.87
2022-09-14T10:57:00.158Z,22.85
2022-09-14T10:59:23.137Z,22.84
2022-09-14T11:01:50.301Z,22.74
2022-09-14T11:04:08.784Z,22.67
2022-09-14T11:06:26.566Z,22.63
2022-09-14T11:08:39.390Z,22.60
2022-09-14T11:11:03.239Z,22.60
2022-09-14T11:13:26.859Z,22.61
2022-09-14T11:15:40.076Z,22.63
2022-09-14T11:17:58.185Z,22.61
2022-09-14T11:20:14.114Z,22.62
2022-09-14T11:22:28.885Z,22.67
2022-09-14T11:24:41.900Z,22.72
2022-09-14T11:26:55.003Z,22.78
2022-09-14T11:29:12.554Z,22.86
2022-09-14T11:31:22.050Z,22.97
2022-09-14T11:33:34.102Z,23.01
2022-09-14T11:35:42.717Z,23.07
2022-09-14T11:37:53.860Z,23.12
2022-09-14T11:40:05.389Z,23.18
2022-09-14T11:42:13.997Z,23.23
2022-09-14T11:44:22.618Z,23.31
2022-09-14T11:46:31.837Z,23.40
2022-09-14T11:48:44.035Z,23.46
2022-09-14T11:50:49.984Z,23.56
2022-09-14T11:53:02.975Z,23.63
2022-09-14T11:55:15.979Z,23.67
2022-09-14T11:57:24.150Z,23.73
2022-09-14T11:59:49.004Z,23.82
2022-09-14T12:01:53.693Z,23.96
2022-09-14T12:04:10.679Z,24.00
2022-09-14T12:06:46.804Z,24.05
2022-09-14T12:08:51.541Z,24.11
2022-09-14T12:11:05.593Z,24.18
2022-09-14T12:13:22.443Z,24.26
2022-09-14T12:15:43.797Z,24.32
2022-09-14T12:17:49.335Z,24.33
2022-09-14T12:19:59.352Z,24.37
2022-09-14T12:22:33.886Z,24.42
2022-09-14T12:24:40.624Z,24.49
2022-09-14T12:26:45.820Z,24.54
2022-09-14T12:28:53.248Z,24.53
2022-09-14T12:31:38.666Z,24.57
2022-09-14T12:33:58.061Z,24.66
2022-09-14T12:36:03.727Z,24.69
2022-09-14T12:38:40.620Z,24.67
2022-09-14T12:40:45.728Z,24.65
2022-09-14T12:42:50.533Z,24.70
2022-09-14T12:44:55.506Z,24.76
2022-09-14T12:47:20.451Z,24.83
2022-09-14T12:49:34.562Z,24.95
2022-09-14T12:51:47.004Z,25.05
2022-09-14T12:54:02.344Z,25.10
2022-09-14T12:56:15.678Z,25.19
2022-09-14T12:58:34.014Z,25.22
2022-09-14T13:00:53.449Z,25.23
2022-09-14T13:03:14.969Z,25.25
2022-09-14T13:05:23.862Z,25.24
2022-09-14T13:07:32.522Z,25.26
2022-09-14T13:09:37.278Z,25.31
2022-09-14T13:11:42.563Z,25.28
2022-09-14T13:13:47.854Z,25.24
2022-09-14T13:15:58.753Z,25.18
2022-09-14T13:18:05.812Z,25.09
2022-09-14T13:20:19.106Z,25.00
2022-09-14T13:22:26.395Z,25.00
2022-09-14T13:24:36.848Z,25.06
2022-09-14T13:26:43.538Z,25.16
2022-09-14T13:28:50.510Z,25.25
2022-09-14T13:31:00.550Z,25.33
2022-09-14T13:33:06.899Z,25.38
2022-09-14T13:35:24.787Z,25.37
2022-09-14T13:37:29.782Z,25.40
2022-09-14T13:39:37.364Z,25.44
2022-09-14T13:41:45.327Z,25.47
2022-09-14T13:43:52.172Z,25.45
2022-09-14T13:45:57.512Z,25.46
2022-09-14T13:48:04.200Z,25.45
2022-09-14T13:50:12.617Z,25.41
2022-09-14T13:52:38.920Z,25.42
2022-09-14T13:54:48.664Z,25.47
2022-09-14T13:57:13.102Z,25.47
2022-09-14T13:59:24.085Z,25.43
2022-09-14T14:01:30.183Z,25.41
2022-09-14T14:03:37.189Z,25.36
2022-09-14T14:05:43.477Z,25.36
2022-09-14T14:07:48.405Z,25.37
2022-09-14T14:09:55.329Z,25.35
2022-09-14T14:12:00.169Z,25.41
2022-09-14T14:14:20.452Z,25.48
2022-09-14T14:16:26.153Z,25.56
2022-09-14T14:18:41.689Z,25.67
2022-09-14T14:20:46.511Z,25.83
2022-09-14T14:22:59.172Z,25.91
2022-09-14T14:25:20.062Z,25.94
2022-09-14T14:27:31.037Z,25.94
2022-09-14T14:29:35.849Z,25.96
2022-09-14T14:31:40.562Z,25.99
2022-09-14T14:33:50.839Z,25.97
2022-09-14T14:35:56.867Z,25.97
2022-09-14T14:38:01.542Z,26.04
2022-09-14T14:40:08.295Z,26.09
2022-09-14T14:42:14.897Z,26.17
2022-09-14T14:44:22.376Z,26.20
2022-09-14T14:46:27.218Z,26.22
2022-09-14T14:48:31.904Z,26.19
2022-09-14T14:50:36.641Z,26.17
2022-09-14T14:52:41.380Z,26.17
2022-09-14T14:54:46.061Z,26.17
2022-09-14T14:56:52.058Z,26.20
2022-09-14T14:59:01.421Z,26.21
2022-09-14T15:01:07.291Z,26.22
2022-09-14T15:03:12.211Z,26.21
2022-09-14T15:05:17.837Z,26.22
2022-09-14T15:07:22.547Z,26.22
2022-09-14T15:09:29.228Z,26.18
2022-09-14T15:11:38.828Z,26.09
2022-09-14T15:13:43.837Z,26.05
2022-09-14T15:15:48.636Z,26.03
2022-09-14T15:17:54.024Z,26.02
2022-09-14T15:19:58.807Z,26.03
2022-09-14T15:22:03.551Z,26.02
2022-09-14T15:24:09.133Z,26.03
2022-09-14T15:26:14.016Z,26.03
2022-09-14T15:28:18.672Z,26.00
2022-09-14T15:30:23.538Z,25.98
2022-09-14T15:32:28.374Z,25.96
2022-09-14T15:34:33.125Z,25.96
2022-09-14T15:36:39.970Z,25.94
2022-09-14T15:38:44.734Z,25.92
2022-09-14T15:40:49.400Z,25.92
2022-09-14T15:42:54.948Z,25.94
2022-09-14T15:44:59.737Z,25.94
2022-09-14T15:47:05.190Z,25.96
2022-09-14T15:49:12.361Z,25.97
2022-09-14T15:51:17.254Z,25.98
2022-09-14T15:53:22.056Z,25.97
2022-09-14T15:55:26.976Z,25.95
2022-09-14T15:57:32.118Z,25.94
2022-09-14T15:59:37.371Z,25.94
2022-09-14T16:01:42.293Z,25.92
2022-09-14T16:03:48.163Z,25.90
2022-09-14T16:05:53.898Z,25.89
2022-09-14T16:07:59.123Z,25.88
2022-09-14T16:10:04.516Z,25.83
2022-09-14T16:12:11.264Z,25.76
2022-09-14T16:14:16.017Z,25.68
2022-09-14T16:16:21.737Z,25.59
2022-09-14T16:18:28.274Z,25.52
2022-09-14T16:20:34.958Z,25.44
2022-09-14T16:22:39.695Z,25.10
2022-09-14T16:24:44.676Z,24.65
2022-09-14T16:26:49.363Z,24.23
2022-09-14T16:28:54.963Z,23.78
2022-09-14T16:31:08.087Z,23.38
2022-09-14T16:33:12.827Z,23.04
2022-09-14T16:35:17.580Z,22.81
2022-09-14T16:37:22.228Z,22.63
2022-09-14T16:39:28.565Z,22.48
2022-09-14T16:41:33.791Z,22.36
2022-09-14T16:43:38.749Z,22.25
2022-09-14T16:45:43.536Z,22.20
2022-09-14T16:47:48.387Z,22.16
2022-09-14T16:49:53.474Z,22.15
2022-09-14T16:51:58.439Z,22.18
2022-09-14T16:54:03.522Z,22.19
2022-09-14T16:56:10.488Z,22.21
2022-09-14T16:58:15.225Z,22.23
2022-09-14T17:00:20.383Z,22.25
2022-09-14T17:02:25.253Z,22.28
2022-09-14T17:04:30.108Z,22.31
2022-09-14T17:06:35.552Z,22.35
2022-09-14T17:08:43.815Z,22.39
2022-09-14T17:10:51.133Z,22.43
2022-09-14T17:12:55.822Z,22.46
2022-09-14T17:15:00.650Z,22.49
2022-09-14T17:17:05.496Z,22.53
2022-09-14T17:19:11.270Z,22.56
2022-09-14T17:21:17.822Z,22.60
2022-09-14T17:23:22.610Z,22.63
2022-09-14T17:25:27.295Z,22.66
2022-09-14T17:27:32.001Z,22.71
2022-09-14T17:29:36.642Z,22.76
2022-09-14T17:31:43.012Z,22.79
2022-09-14T17:33:48.090Z,22.81
2022-09-14T17:35:55.536Z,22.83
2022-09-14T17:38:00.292Z,22.84
2022-09-14T17:40:06.372Z,22.87
2022-09-14T17:42:11.219Z,22.88
2022-09-14T17:44:16.077Z,22.91
2022-09-14T17:46:22.647Z,22.92
2022-09-14T17:48:31.739Z,22.96
2022-09-14T17:50:40.419Z,22.99
2022-09-14T17:52:45.135Z,22.98
2022-09-14T17:54:49.791Z,23.00
2022-09-14T17:56:54.502Z,22.99
2022-09-14T17:59:04.558Z,22.98
2022-09-14T18:01:11.766Z,22.99
2022-09-14T18:03:16.591Z,22.99
2022-09-14T18:05:22.019Z,22.96
2022-09-14T18:07:26.943Z,22.96
2022-09-14T18:09:31.925Z,22.95
2022-09-14T18:11:37.419Z,22.98
2022-09-14T18:13:43.535Z,22.99
2022-09-14T18:15:48.609Z,22.98
2022-09-14T18:17:53.690Z,23.00
2022-09-14T18:19:58.762Z,23.03
2022-09-14T18:22:03.913Z,23.08
2022-09-14T18:24:10.209Z,23.11
2022-09-14T18:26:15.337Z,23.12
2022-09-14T18:28:20.174Z,23.09
2022-09-14T18:30:25.091Z,23.05
2022-09-14T18:32:30.149Z,23.01
2022-09-14T18:34:35.350Z,23.04
2022-09-14T18:36:40.771Z,23.08
2022-09-14T18:38:46.357Z,23.12
2022-09-14T18:40:52.090Z,23.11
2022-09-14T18:42:57.149Z,23.10
2022-09-14T18:45:02.319Z,23.09
2022-09-14T18:47:07.752Z,23.07
2022-09-14T18:49:13.243Z,23.04
2022-09-14T18:51:18.806Z,23.01
2022-09-14T18:53:24.103Z,22.97
2022-09-14T18:55:29.343Z,22.96
2022-09-14T18:57:34.435Z,22.95
2022-09-14T18:59:39.617Z,22.96
2022-09-14T19:01:45.078Z,22.99
2022-09-14T19:03:50.578Z,23.00
2022-09-14T19:05:55.661Z,23.02
2022-09-14T19:08:01.622Z,23.05
2022-09-14T19:10:11.460Z,23.09
2022-09-14T19:12:17.052Z,23.14
2022-09-14T19:14:23.232Z,23.16
2022-09-14T19:16:29.582Z,23.17
2022-09-14T19:18:35.987Z,23.20
2022-09-14T19:21:05.328Z,23.21
2022-09-14T19:23:08.633Z,23.20
2022-09-14T19:25:14.576Z,23.20
2022-09-14T19:27:20.065Z,23.14
2022-09-14T19:29:26.484Z,23.06
2022-09-14T19:31:32.635Z,22.88
2022-09-14T19:33:43.228Z,22.64
2022-09-14T19:35:50.676Z,22.34
2022-09-14T19:37:57.723Z,22.09
2022-09-14T19:40:03.754Z,21.82
2022-09-14T19:42:09.252Z,21.56
2022-09-14T19:44:15.319Z,21.35
2022-09-14T19:46:22.573Z,21.15
2022-09-14T19:48:28.443Z,21.00
2022-09-14T19:50:33.772Z,20.87
2022-09-14T19:52:39.148Z,20.77
2022-09-14T19:54:44.474Z,20.68
2022-09-14T19:56:50.779Z,20.58
2022-09-14T19:58:58.524Z,20.48
2022-09-14T20:01:06.780Z,20.38
2022-09-14T20:03:11.799Z,20.28
2022-09-14T20:05:17.090Z,20.19
2022-09-14T20:07:22.160Z,20.13
2022-09-14T20:09:27.469Z,20.07
2022-09-14T20:11:33.847Z,20.05
2022-09-14T20:13:39.510Z,20.03
2022-09-14T20:15:44.488Z,20.02
2022-09-14T20:17:53.342Z,20.00
2022-09-14T20:19:58.581Z,20.00
2022-09-14T20:22:03.614Z,20.01
2022-09-14T20:24:16.535Z,20.01
2022-09-14T20:26:22.557Z,20.01
2022-09-14T20:28:28.124Z,20.00
2022-09-14T20:30:32.760Z,20.00
2022-09-14T20:32:37.402Z,20.00
2022-09-14T20:34:42.122Z,20.03
2022-09-14T20:36:47.055Z,20.05
2022-09-14T20:38:53.274Z,20.08
2022-09-14T20:40:59.999Z,20.12
2022-09-14T20:43:04.625Z,20.14
2022-09-14T20:45:10.860Z,20.14
2022-09-14T20:47:15.471Z,20.12
2022-09-14T20:49:22.325Z,20.12
2022-09-14T20:51:27.295Z,20.13
2022-09-14T20:53:34.754Z,20.12
2022-09-14T20:55:39.495Z,20.11
2022-09-14T20:57:44.210Z,20.09
2022-09-14T20:59:48.952Z,20.06
2022-09-14T21:01:53.929Z,20.05
2022-09-14T21:04:04.373Z,20.04
2022-09-14T21:06:11.080Z,20.04
2022-09-14T21:08:15.822Z,20.03
2022-09-14T21:10:20.832Z,20.04
2022-09-14T21:12:25.555Z,20.04
2022-09-14T21:14:30.655Z,20.03
2022-09-14T21:16:38.319Z,20.00
2022-09-14T21:18:43.896Z,19.99
2022-09-14T21:20:48.623Z,19.98
2022-09-14T21:22:53.529Z,19.97
2022-09-14T21:24:58.209Z,19.93
2022-09-14T21:27:02.917Z,19.90
2022-09-14T21:29:09.443Z,19.86
2022-09-14T21:31:18.991Z,19.83
2022-09-14T21:33:23.727Z,19.81
2022-09-14T21:35:33.460Z,19.79
2022-09-14T21:37:44.501Z,19.78
2022-09-14T21:39:49.288Z,19.75
2022-09-14T21:41:58.682Z,19.75
2022-09-14T21:44:04.498Z,19.73
2022-09-14T21:46:10.228Z,19.71
2022-09-14T21:48:15.079Z,19.70
2022-09-14T21:50:19.868Z,19.68
2022-09-14T21:52:24.586Z,19.69
2022-09-14T21:54:29.517Z,19.69
2022-09-14T21:56:36.380Z,19.67
2022-09-14T21:58:42.156Z,19.68
2022-09-14T22:00:46.908Z,19.68
2022-09-14T22:02:51.585Z,19.69
2022-09-14T22:04:56.341Z,19.70
2022-09-14T22:07:01.025Z,19.70
2022-09-14T22:09:05.999Z,19.71
2022-09-14T22:11:12.976Z,19.71
2022-09-14T22:13:18.008Z,19.71
2022-09-14T22:15:22.721Z,19.71
2022-09-14T22:17:27.385Z,19.70
2022-09-14T22:19:33.309Z,19.71
2022-09-14T22:21:39.352Z,19.70
2022-09-14T22:23:48.126Z,19.70
2022-09-14T22:25:53.284Z,19.69
2022-09-14T22:27:58.035Z,19.69
2022-09-14T22:30:02.860Z,19.69
2022-09-14T22:32:08.168Z,19.70
2022-09-14T22:34:13.889Z,19.71
2022-09-14T22:36:22.258Z,19.72
2022-09-14T22:38:29.649Z,19.73
2022-09-14T22:40:34.358Z,19.74
2022-09-14T22:42:39.173Z,19.75
2022-09-14T22:44:43.938Z,19.74
2022-09-14T22:46:48.728Z,19.76
2022-09-14T22:48:54.098Z,19.75
2022-09-14T22:51:00.377Z,19.75
2022-09-14T22:53:05.121Z,19.75
2022-09-14T22:55:10.419Z,19.75
2022-09-14T22:57:15.118Z,19.76
2022-09-14T22:59:19.848Z,19.76
2022-09-14T23:01:26.541Z,19.78
2022-09-14T23:03:31.369Z,19.79
2022-09-14T23:05:37.150Z,19.80
2022-09-14T23:07:41.948Z,19.81
2022-09-14T23:09:46.773Z,19.83
2022-09-14T23:11:51.973Z,19.87
2022-09-14T23:13:56.865Z,19.90
2022-09-14T23:16:01.780Z,19.91
2022-09-14T23:18:07.176Z,19.94
2022-09-14T23:20:12.145Z,19.95
2022-09-14T23:22:17.940Z,19.95
2022-09-14T23:24:23.072Z,19.96
2022-09-14T23:26:28.418Z,19.98
2022-09-14T23:28:33.885Z,20.01
2022-09-14T23:30:39.126Z,20.02
2022-09-14T23:32:43.853Z,20.04
2022-09-14T23:34:48.855Z,20.05
2022-09-14T23:36:53.592Z,20.05
2022-09-14T23:38:58.646Z,20.07
2022-09-14T23:41:03.344Z,20.08
2022-09-14T23:43:08.388Z,20.10
2022-09-14T23:45:13.981Z,20.11
2022-09-14T23:47:18.797Z,20.12
2022-09-14T23:49:23.990Z,20.12
2022-09-14T23:51:28.784Z,20.15
2022-09-14T23:53:34.223Z,20.16
2022-09-14T23:55:42.359Z,20.16
2022-09-14T23:57:47.195Z,20.18
2022-09-14T23:59:51.938Z,20.17
